sensor_id;sensor_type;location;lat;lon;timestamp;pressure;altitude;pressure_sealevel;temperature;humidity
59274;BME280;45044;41.572;24.730;2023-05-13T00:01:04;91705.00;;;4.74;100.00
59274;BME280;45044;41.572;24.730;2023-05-13T00:03:31;91716.28;;;4.66;100.00
59274;BME280;45044;41.572;24.730;2023-05-13T00:05:58;91714.00;;;4.52;100.00
59274;BME280;45044;41.572;24.730;2023-05-13T00:08:26;91715.94;;;4.67;100.00
59274;BME280;45044;41.572;24.730;2023-05-13T00:10:54;91712.69;;;4.71;100.00
59274;BME280;45044;41.572;24.730;2023-05-13T00:13:21;91707.34;;;4.54;100.00
59274;BME280;45044;41.572;24.730;2023-05-13T00:15:47;91722.00;;;4.34;100.00
59274;BME280;45044;41.572;24.730;2023-05-13T00:18:14;91723.97;;;4.50;100.00
59274;BME280;45044;41.572;24.730;2023-05-13T00:20:41;91724.19;;;4.57;100.00
59274;BME280;45044;41.572;24.730;2023-05-13T00:23:08;91724.63;;;4.47;100.00
59274;BME280;45044;41.572;24.730;2023-05-13T00:25:35;91721.44;;;4.28;100.00
59274;BME280;45044;41.572;24.730;2023-05-13T00:28:03;91720.94;;;4.48;100.00
59274;BME280;45044;41.572;24.730;2023-05-13T00:30:30;91731.34;;;4.60;100.00
59274;BME280;45044;41.572;24.730;2023-05-13T00:32:56;91724.84;;;4.54;100.00
59274;BME280;45044;41.572;24.730;2023-05-13T00:35:24;91722.84;;;4.38;100.00
59274;BME280;45044;41.572;24.730;2023-05-13T00:37:51;91724.91;;;4.32;100.00
59274;BME280;45044;41.572;24.730;2023-05-13T00:40:28;91733.22;;;4.13;100.00
59274;BME280;45044;41.572;24.730;2023-05-13T00:42:55;91735.84;;;4.26;100.00
59274;BME280;45044;41.572;24.730;2023-05-13T00:45:21;91740.53;;;4.32;100.00
59274;BME280;45044;41.572;24.730;2023-05-13T00:47:48;91726.97;;;4.27;100.00
59274;BME280;45044;41.572;24.730;2023-05-13T00:50:15;91741.94;;;4.30;100.00
59274;BME280;45044;41.572;24.730;2023-05-13T00:52:42;91747.81;;;4.27;100.00
59274;BME280;45044;41.572;24.730;2023-05-13T00:55:15;91750.50;;;4.18;100.00
59274;BME280;45044;41.572;24.730;2023-05-13T00:57:42;91745.19;;;4.14;100.00
59274;BME280;45044;41.572;24.730;2023-05-13T01:00:09;91740.34;;;4.04;100.00
59274;BME280;45044;41.572;24.730;2023-05-13T01:03:14;91748.00;;;3.88;100.00
59274;BME280;45044;41.572;24.730;2023-05-13T01:06:03;91744.47;;;3.92;100.00
59274;BME280;45044;41.572;24.730;2023-05-13T01:11:26;91738.63;;;3.95;100.00
59274;BME280;45044;41.572;24.730;2023-05-13T01:14:05;91741.91;;;4.05;100.00
59274;BME280;45044;41.572;24.730;2023-05-13T01:16:48;91734.19;;;3.96;100.00
59274;BME280;45044;41.572;24.730;2023-05-13T01:22:05;91746.13;;;3.76;100.00
59274;BME280;45044;41.572;24.730;2023-05-13T01:24:32;91732.88;;;3.68;100.00
59274;BME280;45044;41.572;24.730;2023-05-13T01:26:59;91749.59;;;3.80;100.00
59274;BME280;45044;41.572;24.730;2023-05-13T01:29:29;91756.13;;;3.86;100.00
59274;BME280;45044;41.572;24.730;2023-05-13T01:31:57;91743.84;;;3.74;100.00
59274;BME280;45044;41.572;24.730;2023-05-13T01:34:26;91742.13;;;3.57;100.00
59274;BME280;45044;41.572;24.730;2023-05-13T01:36:53;91714.31;;;3.36;100.00
59274;BME280;45044;41.572;24.730;2023-05-13T01:39:21;91706.81;;;3.34;100.00
59274;BME280;45044;41.572;24.730;2023-05-13T01:41:49;91740.84;;;3.51;100.00
59274;BME280;45044;41.572;24.730;2023-05-13T01:44:16;91741.38;;;3.35;100.00
59274;BME280;45044;41.572;24.730;2023-05-13T01:46:46;91756.22;;;3.34;100.00
59274;BME280;45044;41.572;24.730;2023-05-13T01:49:13;91759.69;;;3.17;100.00
59274;BME280;45044;41.572;24.730;2023-05-13T01:51:40;91763.75;;;3.27;100.00
59274;BME280;45044;41.572;24.730;2023-05-13T01:54:06;91751.78;;;3.35;100.00
59274;BME280;45044;41.572;24.730;2023-05-13T01:56:37;91756.44;;;3.51;100.00
59274;BME280;45044;41.572;24.730;2023-05-13T01:59:04;91753.50;;;3.74;100.00
59274;BME280;45044;41.572;24.730;2023-05-13T02:01:31;91758.50;;;3.79;100.00
59274;BME280;45044;41.572;24.730;2023-05-13T02:03:58;91755.16;;;3.91;100.00
59274;BME280;45044;41.572;24.730;2023-05-13T02:06:25;91731.34;;;3.89;100.00
59274;BME280;45044;41.572;24.730;2023-05-13T02:08:53;91747.69;;;3.89;100.00
59274;BME280;45044;41.572;24.730;2023-05-13T02:11:20;91759.50;;;3.22;100.00
59274;BME280;45044;41.572;24.730;2023-05-13T02:13:47;91758.56;;;3.49;100.00
59274;BME280;45044;41.572;24.730;2023-05-13T02:16:19;91749.03;;;3.53;100.00
59274;BME280;45044;41.572;24.730;2023-05-13T02:18:46;91743.03;;;3.40;100.00
59274;BME280;45044;41.572;24.730;2023-05-13T02:21:13;91741.50;;;3.39;100.00
59274;BME280;45044;41.572;24.730;2023-05-13T02:23:39;91741.97;;;3.41;100.00
59274;BME280;45044;41.572;24.730;2023-05-13T02:26:06;91743.91;;;3.22;100.00
59274;BME280;45044;41.572;24.730;2023-05-13T02:28:33;91754.75;;;3.25;100.00
59274;BME280;45044;41.572;24.730;2023-05-13T02:30:59;91745.38;;;3.32;100.00
59274;BME280;45044;41.572;24.730;2023-05-13T02:33:26;91733.59;;;3.35;100.00
59274;BME280;45044;41.572;24.730;2023-05-13T02:35:53;91747.53;;;3.30;100.00
59274;BME280;45044;41.572;24.730;2023-05-13T02:38:20;91748.13;;;3.36;100.00
59274;BME280;45044;41.572;24.730;2023-05-13T02:40:46;91748.66;;;3.42;100.00
59274;BME280;45044;41.572;24.730;2023-05-13T02:43:13;91760.34;;;3.35;100.00
59274;BME280;45044;41.572;24.730;2023-05-13T02:45:40;91770.59;;;3.32;100.00
59274;BME280;45044;41.572;24.730;2023-05-13T02:48:07;91761.91;;;3.28;100.00
59274;BME280;45044;41.572;24.730;2023-05-13T02:50:39;91769.72;;;3.28;100.00
59274;BME280;45044;41.572;24.730;2023-05-13T02:53:06;91770.34;;;3.25;100.00
59274;BME280;45044;41.572;24.730;2023-05-13T02:55:34;91782.75;;;3.19;100.00
59274;BME280;45044;41.572;24.730;2023-05-13T02:58:01;91782.91;;;2.92;100.00
59274;BME280;45044;41.572;24.730;2023-05-13T03:00:27;91786.66;;;3.04;100.00
59274;BME280;45044;41.572;24.730;2023-05-13T03:02:54;91798.63;;;2.96;100.00
59274;BME280;45044;41.572;24.730;2023-05-13T03:05:22;91805.91;;;3.03;100.00
59274;BME280;45044;41.572;24.730;2023-05-13T03:07:48;91795.81;;;3.10;100.00
59274;BME280;45044;41.572;24.730;2023-05-13T03:10:15;91791.06;;;3.12;100.00
59274;BME280;45044;41.572;24.730;2023-05-13T03:12:42;91790.81;;;3.26;100.00
59274;BME280;45044;41.572;24.730;2023-05-13T03:15:09;91786.97;;;3.32;100.00
59274;BME280;45044;41.572;24.730;2023-05-13T03:17:36;91792.84;;;3.20;100.00
59274;BME280;45044;41.572;24.730;2023-05-13T03:20:03;91790.56;;;3.19;100.00
59274;BME280;45044;41.572;24.730;2023-05-13T03:22:30;91796.34;;;3.25;100.00
59274;BME280;45044;41.572;24.730;2023-05-13T03:25:07;91790.38;;;3.24;100.00
59274;BME280;45044;41.572;24.730;2023-05-13T03:27:33;91803.56;;;3.40;100.00
59274;BME280;45044;41.572;24.730;2023-05-13T03:30:00;91801.16;;;3.56;100.00
59274;BME280;45044;41.572;24.730;2023-05-13T03:32:27;91801.81;;;3.53;100.00
59274;BME280;45044;41.572;24.730;2023-05-13T03:34:57;91800.03;;;3.66;100.00
59274;BME280;45044;41.572;24.730;2023-05-13T03:37:26;91810.56;;;3.70;100.00
59274;BME280;45044;41.572;24.730;2023-05-13T03:39:53;91813.63;;;3.72;100.00
59274;BME280;45044;41.572;24.730;2023-05-13T03:42:19;91817.41;;;3.75;100.00
59274;BME280;45044;41.572;24.730;2023-05-13T03:44:48;91820.22;;;3.69;100.00
59274;BME280;45044;41.572;24.730;2023-05-13T03:47:16;91819.34;;;3.87;100.00
59274;BME280;45044;41.572;24.730;2023-05-13T03:49:43;91830.47;;;3.87;100.00
59274;BME280;45044;41.572;24.730;2023-05-13T03:52:10;91832.34;;;3.87;100.00
59274;BME280;45044;41.572;24.730;2023-05-13T03:54:36;91828.50;;;3.41;100.00
59274;BME280;45044;41.572;24.730;2023-05-13T03:57:03;91825.63;;;3.34;100.00
59274;BME280;45044;41.572;24.730;2023-05-13T03:59:30;91829.69;;;3.44;100.00
59274;BME280;45044;41.572;24.730;2023-05-13T04:01:57;91839.50;;;3.38;100.00
59274;BME280;45044;41.572;24.730;2023-05-13T04:04:23;91818.44;;;3.40;100.00
59274;BME280;45044;41.572;24.730;2023-05-13T04:06:50;91821.75;;;3.70;100.00
59274;BME280;45044;41.572;24.730;2023-05-13T04:09:17;91828.06;;;3.82;100.00
59274;BME280;45044;41.572;24.730;2023-05-13T04:11:43;91832.34;;;3.65;100.00
59274;BME280;45044;41.572;24.730;2023-05-13T04:14:10;91842.41;;;3.67;100.00
59274;BME280;45044;41.572;24.730;2023-05-13T04:16:37;91845.28;;;3.95;100.00
59274;BME280;45044;41.572;24.730;2023-05-13T04:19:04;91846.97;;;4.13;100.00
59274;BME280;45044;41.572;24.730;2023-05-13T04:21:34;91841.72;;;4.22;100.00
59274;BME280;45044;41.572;24.730;2023-05-13T04:24:01;91837.56;;;4.21;100.00
59274;BME280;45044;41.572;24.730;2023-05-13T04:26:27;91843.38;;;4.05;100.00
59274;BME280;45044;41.572;24.730;2023-05-13T04:28:54;91849.03;;;4.07;100.00
59274;BME280;45044;41.572;24.730;2023-05-13T04:31:22;91849.13;;;4.32;100.00
59274;BME280;45044;41.572;24.730;2023-05-13T04:33:48;91848.28;;;4.53;100.00
59274;BME280;45044;41.572;24.730;2023-05-13T04:36:15;91842.97;;;4.83;100.00
59274;BME280;45044;41.572;24.730;2023-05-13T04:38:42;91847.09;;;5.09;100.00
59274;BME280;45044;41.572;24.730;2023-05-13T04:41:09;91839.72;;;4.99;100.00
59274;BME280;45044;41.572;24.730;2023-05-13T04:43:45;91840.47;;;5.37;100.00
59274;BME280;45044;41.572;24.730;2023-05-13T04:46:12;91849.31;;;5.86;100.00
59274;BME280;45044;41.572;24.730;2023-05-13T04:48:39;91858.22;;;7.64;100.00
59274;BME280;45044;41.572;24.730;2023-05-13T04:51:06;91852.09;;;9.69;100.00
59274;BME280;45044;41.572;24.730;2023-05-13T04:53:33;91863.97;;;11.24;100.00
59274;BME280;45044;41.572;24.730;2023-05-13T04:56:00;91876.41;;;12.51;100.00
59274;BME280;45044;41.572;24.730;2023-05-13T04:58:27;91872.84;;;13.55;100.00
59274;BME280;45044;41.572;24.730;2023-05-13T05:00:54;91867.50;;;14.13;100.00
59274;BME280;45044;41.572;24.730;2023-05-13T05:03:20;91869.00;;;15.11;98.50
59274;BME280;45044;41.572;24.730;2023-05-13T05:05:47;91870.09;;;16.16;85.09
59274;BME280;45044;41.572;24.730;2023-05-13T05:08:15;91862.50;;;16.19;83.40
59274;BME280;45044;41.572;24.730;2023-05-13T05:10:41;91866.59;;;16.58;75.33
59274;BME280;45044;41.572;24.730;2023-05-13T05:13:08;91871.59;;;16.84;71.16
59274;BME280;45044;41.572;24.730;2023-05-13T05:15:36;91872.03;;;17.14;70.49
59274;BME280;45044;41.572;24.730;2023-05-13T05:18:02;91877.72;;;17.40;65.63
59274;BME280;45044;41.572;24.730;2023-05-13T05:20:31;91869.19;;;16.66;71.19
59274;BME280;45044;41.572;24.730;2023-05-13T05:23:00;91878.06;;;18.14;64.87
59274;BME280;45044;41.572;24.730;2023-05-13T05:25:27;91874.81;;;17.30;63.93
59274;BME280;45044;41.572;24.730;2023-05-13T05:27:54;91878.44;;;17.92;62.49
59274;BME280;45044;41.572;24.730;2023-05-13T05:30:22;91870.28;;;18.47;60.23
59274;BME280;45044;41.572;24.730;2023-05-13T05:32:49;91868.00;;;18.86;58.99
59274;BME280;45044;41.572;24.730;2023-05-13T05:35:17;91866.94;;;19.54;56.97
59274;BME280;45044;41.572;24.730;2023-05-13T05:37:45;91884.34;;;20.26;54.33
59274;BME280;45044;41.572;24.730;2023-05-13T05:40:12;91884.50;;;18.77;57.70
59274;BME280;45044;41.572;24.730;2023-05-13T05:42:39;91882.06;;;18.87;59.38
59274;BME280;45044;41.572;24.730;2023-05-13T05:45:06;91885.59;;;19.54;56.95
59274;BME280;45044;41.572;24.730;2023-05-13T05:47:33;91881.81;;;20.78;53.33
59274;BME280;45044;41.572;24.730;2023-05-13T05:50:00;91885.09;;;20.69;52.23
59274;BME280;45044;41.572;24.730;2023-05-13T05:52:27;91881.72;;;20.81;51.75
59274;BME280;45044;41.572;24.730;2023-05-13T05:54:54;91877.19;;;21.21;51.04
59274;BME280;45044;41.572;24.730;2023-05-13T05:57:21;91873.19;;;22.04;48.76
59274;BME280;45044;41.572;24.730;2023-05-13T05:59:47;91863.28;;;21.39;49.91
59274;BME280;45044;41.572;24.730;2023-05-13T06:02:14;91853.44;;;21.10;50.56
59274;BME280;45044;41.572;24.730;2023-05-13T06:04:41;91847.44;;;20.37;51.10
59274;BME280;45044;41.572;24.730;2023-05-13T06:07:08;91858.47;;;20.52;50.85
59274;BME280;45044;41.572;24.730;2023-05-13T06:09:34;91853.50;;;19.91;51.76
59274;BME280;45044;41.572;24.730;2023-05-13T06:12:01;91850.59;;;20.02;52.02
59274;BME280;45044;41.572;24.730;2023-05-13T06:14:28;91848.19;;;20.08;51.15
59274;BME280;45044;41.572;24.730;2023-05-13T06:16:54;91838.13;;;19.49;52.30
59274;BME280;45044;41.572;24.730;2023-05-13T06:19:21;91846.09;;;19.32;52.04
59274;BME280;45044;41.572;24.730;2023-05-13T06:21:48;91847.38;;;19.44;52.99
59274;BME280;45044;41.572;24.730;2023-05-13T06:24:16;91846.28;;;19.92;51.72
59274;BME280;45044;41.572;24.730;2023-05-13T06:26:44;91850.03;;;19.27;50.90
59274;BME280;45044;41.572;24.730;2023-05-13T06:29:10;91848.22;;;20.51;50.47
59274;BME280;45044;41.572;24.730;2023-05-13T06:31:37;91854.97;;;20.55;51.39
59274;BME280;45044;41.572;24.730;2023-05-13T06:34:04;91851.06;;;20.86;50.24
59274;BME280;45044;41.572;24.730;2023-05-13T06:36:31;91857.00;;;21.46;47.45
59274;BME280;45044;41.572;24.730;2023-05-13T06:38:58;91851.78;;;22.26;47.46
59274;BME280;45044;41.572;24.730;2023-05-13T06:41:25;91852.38;;;22.08;47.37
59274;BME280;45044;41.572;24.730;2023-05-13T06:43:52;91849.19;;;21.39;49.26
59274;BME280;45044;41.572;24.730;2023-05-13T06:46:18;91836.72;;;20.24;52.61
59274;BME280;45044;41.572;24.730;2023-05-13T06:48:50;91837.94;;;21.05;49.84
59274;BME280;45044;41.572;24.730;2023-05-13T06:51:19;91846.88;;;22.47;49.21
59274;BME280;45044;41.572;24.730;2023-05-13T06:53:45;91837.50;;;20.93;47.85
59274;BME280;45044;41.572;24.730;2023-05-13T06:56:12;91834.59;;;22.14;48.20
59274;BME280;45044;41.572;24.730;2023-05-13T06:58:39;91843.34;;;21.93;48.08
59274;BME280;45044;41.572;24.730;2023-05-13T07:01:06;91833.38;;;21.32;49.38
59274;BME280;45044;41.572;24.730;2023-05-13T07:03:33;91828.84;;;21.28;48.17
59274;BME280;45044;41.572;24.730;2023-05-13T07:05:59;91836.41;;;22.18;46.33
59274;BME280;45044;41.572;24.730;2023-05-13T07:08:26;91838.47;;;22.13;49.81
59274;BME280;45044;41.572;24.730;2023-05-13T07:10:53;91837.47;;;20.67;50.05
59274;BME280;45044;41.572;24.730;2023-05-13T07:13:20;91839.34;;;21.10;51.16
59274;BME280;45044;41.572;24.730;2023-05-13T07:15:47;91837.47;;;22.20;50.74
59274;BME280;45044;41.572;24.730;2023-05-13T07:18:14;91833.81;;;23.04;46.83
59274;BME280;45044;41.572;24.730;2023-05-13T07:20:41;91829.94;;;22.73;48.27
59274;BME280;45044;41.572;24.730;2023-05-13T07:23:08;91836.03;;;21.18;49.52
59274;BME280;45044;41.572;24.730;2023-05-13T07:25:34;91830.41;;;21.91;48.17
59274;BME280;45044;41.572;24.730;2023-05-13T07:28:01;91821.38;;;23.61;45.84
59274;BME280;45044;41.572;24.730;2023-05-13T07:30:28;91825.00;;;23.86;44.03
59274;BME280;45044;41.572;24.730;2023-05-13T07:32:55;91825.53;;;22.34;45.55
59274;BME280;45044;41.572;24.730;2023-05-13T07:35:22;91822.66;;;22.06;48.26
59274;BME280;45044;41.572;24.730;2023-05-13T07:37:49;91821.19;;;23.04;48.05
59274;BME280;45044;41.572;24.730;2023-05-13T07:40:16;91808.81;;;21.59;46.24
59274;BME280;45044;41.572;24.730;2023-05-13T07:42:43;91811.34;;;20.45;50.94
59274;BME280;45044;41.572;24.730;2023-05-13T07:45:10;91816.84;;;20.68;51.80
59274;BME280;45044;41.572;24.730;2023-05-13T07:47:36;91819.16;;;21.22;50.32
59274;BME280;45044;41.572;24.730;2023-05-13T07:50:04;91813.81;;;21.70;50.46
59274;BME280;45044;41.572;24.730;2023-05-13T07:52:31;91818.53;;;21.04;49.88
59274;BME280;45044;41.572;24.730;2023-05-13T07:54:58;91811.94;;;20.79;49.48
59274;BME280;45044;41.572;24.730;2023-05-13T07:57:24;91815.50;;;21.41;49.16
59274;BME280;45044;41.572;24.730;2023-05-13T07:59:51;91811.41;;;20.72;51.08
59274;BME280;45044;41.572;24.730;2023-05-13T08:02:19;91817.13;;;21.00;52.33
59274;BME280;45044;41.572;24.730;2023-05-13T08:04:45;91815.41;;;20.07;54.37
59274;BME280;45044;41.572;24.730;2023-05-13T08:07:12;91801.69;;;19.09;55.33
59274;BME280;45044;41.572;24.730;2023-05-13T08:09:39;91798.31;;;18.71;59.88
59274;BME280;45044;41.572;24.730;2023-05-13T08:12:06;91805.47;;;18.74;58.62
59274;BME280;45044;41.572;24.730;2023-05-13T08:14:33;91811.09;;;18.39;63.84
59274;BME280;45044;41.572;24.730;2023-05-13T08:17:00;91805.63;;;18.67;59.48
59274;BME280;45044;41.572;24.730;2023-05-13T08:19:29;91812.81;;;18.87;60.66
59274;BME280;45044;41.572;24.730;2023-05-13T08:21:55;91804.97;;;18.42;69.54
59274;BME280;45044;41.572;24.730;2023-05-13T08:24:22;91798.84;;;18.01;65.32
59274;BME280;45044;41.572;24.730;2023-05-13T08:26:49;91804.53;;;18.03;62.99
59274;BME280;45044;41.572;24.730;2023-05-13T08:29:23;91815.63;;;17.54;70.14
59274;BME280;45044;41.572;24.730;2023-05-13T08:31:50;91813.72;;;17.54;76.50
59274;BME280;45044;41.572;24.730;2023-05-13T08:34:16;91802.25;;;17.81;70.84
59274;BME280;45044;41.572;24.730;2023-05-13T08:36:43;91804.38;;;18.11;64.80
59274;BME280;45044;41.572;24.730;2023-05-13T08:39:10;91801.84;;;18.27;75.91
59274;BME280;45044;41.572;24.730;2023-05-13T08:41:37;91802.09;;;18.33;67.50
59274;BME280;45044;41.572;24.730;2023-05-13T08:44:04;91789.88;;;18.36;78.81
59274;BME280;45044;41.572;24.730;2023-05-13T08:46:32;91801.59;;;18.59;75.98
59274;BME280;45044;41.572;24.730;2023-05-13T08:49:02;91793.91;;;18.44;68.14
59274;BME280;45044;41.572;24.730;2023-05-13T08:51:30;91799.03;;;18.14;79.35
59274;BME280;45044;41.572;24.730;2023-05-13T08:53:57;91794.50;;;17.91;76.69
59274;BME280;45044;41.572;24.730;2023-05-13T08:56:26;91780.25;;;18.01;67.21
59274;BME280;45044;41.572;24.730;2023-05-13T08:58:54;91777.72;;;17.94;71.25
59274;BME280;45044;41.572;24.730;2023-05-13T09:01:24;91792.22;;;18.34;64.40
59274;BME280;45044;41.572;24.730;2023-05-13T09:04:00;91800.50;;;18.56;71.55
59274;BME280;45044;41.572;24.730;2023-05-13T09:06:27;91799.53;;;18.29;72.51
59274;BME280;45044;41.572;24.730;2023-05-13T09:08:55;91803.50;;;17.97;69.69
59274;BME280;45044;41.572;24.730;2023-05-13T09:11:22;91805.41;;;17.96;76.09
59274;BME280;45044;41.572;24.730;2023-05-13T09:13:58;91805.53;;;17.89;77.26
59274;BME280;45044;41.572;24.730;2023-05-13T09:16:29;91796.94;;;17.81;72.36
59274;BME280;45044;41.572;24.730;2023-05-13T09:18:59;91800.47;;;17.27;79.06
59274;BME280;45044;41.572;24.730;2023-05-13T09:21:32;91802.47;;;16.63;83.40
59274;BME280;45044;41.572;24.730;2023-05-13T09:24:21;91801.34;;;16.64;87.02
59274;BME280;45044;41.572;24.730;2023-05-13T09:26:49;91812.81;;;16.54;80.50
59274;BME280;45044;41.572;24.730;2023-05-13T09:29:18;91808.00;;;16.10;92.10
59274;BME280;45044;41.572;24.730;2023-05-13T09:31:48;91815.81;;;15.86;93.67
59274;BME280;45044;41.572;24.730;2023-05-13T09:34:33;91811.09;;;16.05;95.24
59274;BME280;45044;41.572;24.730;2023-05-13T09:37:05;91812.00;;;15.87;100.00
59274;BME280;45044;41.572;24.730;2023-05-13T09:39:37;91809.72;;;15.89;95.29
59274;BME280;45044;41.572;24.730;2023-05-13T09:42:05;91809.13;;;15.71;100.00
59274;BME280;45044;41.572;24.730;2023-05-13T09:44:32;91802.75;;;16.07;98.75
59274;BME280;45044;41.572;24.730;2023-05-13T09:46:59;91803.69;;;15.85;86.78
59274;BME280;45044;41.572;24.730;2023-05-13T09:49:30;91807.25;;;16.13;100.00
59274;BME280;45044;41.572;24.730;2023-05-13T09:51:57;91800.44;;;16.09;90.78
59274;BME280;45044;41.572;24.730;2023-05-13T09:54:24;91810.13;;;16.26;94.73
59274;BME280;45044;41.572;24.730;2023-05-13T09:56:57;91807.31;;;16.69;93.74
59274;BME280;45044;41.572;24.730;2023-05-13T09:59:24;91808.84;;;16.97;78.04
59274;BME280;45044;41.572;24.730;2023-05-13T10:01:52;91813.13;;;16.60;89.38
59274;BME280;45044;41.572;24.730;2023-05-13T10:04:20;91816.19;;;16.58;95.94
59274;BME280;45044;41.572;24.730;2023-05-13T10:06:48;91809.13;;;16.48;98.65
59274;BME280;45044;41.572;24.730;2023-05-13T10:09:15;91811.31;;;16.22;93.33
59274;BME280;45044;41.572;24.730;2023-05-13T10:11:45;91818.13;;;16.23;83.36
59274;BME280;45044;41.572;24.730;2023-05-13T10:14:13;91811.84;;;16.06;100.00
59274;BME280;45044;41.572;24.730;2023-05-13T10:16:42;91816.84;;;16.35;88.82
59274;BME280;45044;41.572;24.730;2023-05-13T10:19:09;91806.84;;;16.15;100.00
59274;BME280;45044;41.572;24.730;2023-05-13T10:21:37;91814.28;;;16.27;90.45
59274;BME280;45044;41.572;24.730;2023-05-13T10:24:06;91805.66;;;16.51;84.91
59274;BME280;45044;41.572;24.730;2023-05-13T10:26:33;91813.78;;;16.68;100.00
59274;BME280;45044;41.572;24.730;2023-05-13T10:29:18;91820.44;;;16.52;84.81
59274;BME280;45044;41.572;24.730;2023-05-13T10:31:49;91809.63;;;16.67;97.43
59274;BME280;45044;41.572;24.730;2023-05-13T10:34:16;91817.72;;;17.15;92.04
59274;BME280;45044;41.572;24.730;2023-05-13T10:37:24;91817.22;;;17.23;83.09
59274;BME280;45044;41.572;24.730;2023-05-13T10:45:05;91813.41;;;16.97;77.28
59274;BME280;45044;41.572;24.730;2023-05-13T10:47:33;91823.88;;;17.08;80.72
59274;BME280;45044;41.572;24.730;2023-05-13T10:50:24;91828.19;;;16.98;82.84
59274;BME280;45044;41.572;24.730;2023-05-13T10:52:55;91829.09;;;16.87;82.13
59274;BME280;45044;41.572;24.730;2023-05-13T10:55:25;91833.78;;;16.76;90.90
59274;BME280;45044;41.572;24.730;2023-05-13T10:58:14;91834.41;;;16.87;75.93
59274;BME280;45044;41.572;24.730;2023-05-13T11:00:43;91834.09;;;16.82;85.99
59274;BME280;45044;41.572;24.730;2023-05-13T11:05:58;91832.97;;;17.10;74.49
59274;BME280;45044;41.572;24.730;2023-05-13T11:08:35;91819.06;;;17.99;74.67
59274;BME280;45044;41.572;24.730;2023-05-13T11:11:16;91831.56;;;17.78;75.50
59274;BME280;45044;41.572;24.730;2023-05-13T11:13:43;91834.19;;;17.57;76.53
59274;BME280;45044;41.572;24.730;2023-05-13T11:16:12;91829.69;;;16.99;80.28
59274;BME280;45044;41.572;24.730;2023-05-13T11:18:39;91832.00;;;16.97;84.31
59274;BME280;45044;41.572;24.730;2023-05-13T11:21:07;91836.16;;;16.67;79.89
59274;BME280;45044;41.572;24.730;2023-05-13T11:23:49;91841.56;;;16.59;91.11
59274;BME280;45044;41.572;24.730;2023-05-13T11:26:17;91845.53;;;16.44;86.50
59274;BME280;45044;41.572;24.730;2023-05-13T11:29:06;91843.09;;;16.60;81.63
59274;BME280;45044;41.572;24.730;2023-05-13T11:34:11;91834.03;;;16.23;91.80
59274;BME280;45044;41.572;24.730;2023-05-13T11:36:51;91810.09;;;16.30;88.21
59274;BME280;45044;41.572;24.730;2023-05-13T11:39:20;91830.75;;;16.74;95.51
59274;BME280;45044;41.572;24.730;2023-05-13T11:41:49;91821.38;;;16.97;98.72
59274;BME280;45044;41.572;24.730;2023-05-13T11:44:20;91821.66;;;17.30;82.54
59274;BME280;45044;41.572;24.730;2023-05-13T11:47:06;91828.34;;;17.15;76.39
59274;BME280;45044;41.572;24.730;2023-05-13T11:49:40;91831.09;;;17.07;73.53
59274;BME280;45044;41.572;24.730;2023-05-13T11:52:11;91819.91;;;16.92;78.52
59274;BME280;45044;41.572;24.730;2023-05-13T11:57:21;91817.06;;;16.79;90.33
59274;BME280;45044;41.572;24.730;2023-05-13T11:59:53;91820.75;;;16.85;81.50
59274;BME280;45044;41.572;24.730;2023-05-13T12:02:25;91828.00;;;16.54;92.85
59274;BME280;45044;41.572;24.730;2023-05-13T12:04:53;91819.59;;;15.85;100.00
59274;BME280;45044;41.572;24.730;2023-05-13T12:07:24;91821.53;;;15.39;100.00
59274;BME280;45044;41.572;24.730;2023-05-13T12:09:54;91834.66;;;15.53;100.00
59274;BME280;45044;41.572;24.730;2023-05-13T12:12:21;91826.19;;;15.20;100.00
59274;BME280;45044;41.572;24.730;2023-05-13T12:14:48;91824.94;;;14.79;100.00
59274;BME280;45044;41.572;24.730;2023-05-13T12:17:16;91825.38;;;14.66;100.00
59274;BME280;45044;41.572;24.730;2023-05-13T12:20:09;91828.38;;;14.72;100.00
59274;BME280;45044;41.572;24.730;2023-05-13T12:22:58;91836.94;;;14.94;100.00
59274;BME280;45044;41.572;24.730;2023-05-13T12:25:35;91826.72;;;15.53;100.00
59274;BME280;45044;41.572;24.730;2023-05-13T12:28:24;91829.72;;;15.55;100.00
59274;BME280;45044;41.572;24.730;2023-05-13T12:33:29;91825.44;;;16.11;100.00
59274;BME280;45044;41.572;24.730;2023-05-13T12:36:19;91827.41;;;16.38;100.00
59274;BME280;45044;41.572;24.730;2023-05-13T12:41:29;91819.00;;;16.75;100.00
59274;BME280;45044;41.572;24.730;2023-05-13T12:43:58;91824.63;;;16.14;100.00
59274;BME280;45044;41.572;24.730;2023-05-13T12:46:26;91815.44;;;16.26;100.00
59274;BME280;45044;41.572;24.730;2023-05-13T12:49:00;91814.19;;;16.66;96.32
59274;BME280;45044;41.572;24.730;2023-05-13T12:51:27;91818.38;;;16.95;100.00
59274;BME280;45044;41.572;24.730;2023-05-13T12:53:55;91815.16;;;17.07;100.00
59274;BME280;45044;41.572;24.730;2023-05-13T12:56:24;91812.47;;;17.11;94.45
59274;BME280;45044;41.572;24.730;2023-05-13T12:58:54;91809.19;;;17.27;90.60
59274;BME280;45044;41.572;24.730;2023-05-13T13:01:21;91808.16;;;17.21;100.00
59274;BME280;45044;41.572;24.730;2023-05-13T13:03:48;91803.00;;;17.34;85.54
59274;BME280;45044;41.572;24.730;2023-05-13T13:06:15;91796.13;;;17.12;83.00
59274;BME280;45044;41.572;24.730;2023-05-13T13:08:42;91804.34;;;17.22;95.50
59274;BME280;45044;41.572;24.730;2023-05-13T13:11:09;91799.75;;;17.26;99.02
59274;BME280;45044;41.572;24.730;2023-05-13T13:13:50;91800.41;;;17.30;100.00
59274;BME280;45044;41.572;24.730;2023-05-13T13:16:17;91796.22;;;17.05;79.53
59274;BME280;45044;41.572;24.730;2023-05-13T13:18:44;91807.09;;;17.15;78.25
59274;BME280;45044;41.572;24.730;2023-05-13T13:21:11;91804.56;;;16.76;87.96
59274;BME280;45044;41.572;24.730;2023-05-13T13:23:38;91807.59;;;16.47;83.98